createdAt,value
2018-05-25T00:00:33.301Z,18.71
2018-05-25T00:01:33.262Z,18.71
2018-05-25T00:02:33.259Z,18.67
2018-05-25T00:03:33.262Z,18.68
2018-05-25T00:04:33.230Z,18.67
2018-05-25T00:05:33.236Z,18.66
2018-05-25T00:06:33.221Z,18.66
2018-05-25T00:07:33.233Z,18.66
2018-05-25T00:08:33.228Z,18.66
2018-05-25T00:09:33.367Z,18.64
2018-05-25T00:10:33.243Z,18.66
2018-05-25T00:11:33.256Z,18.63
2018-05-25T00:12:33.234Z,18.64
2018-05-25T00:13:33.226Z,18.66
2018-05-25T00:14:33.237Z,18.63
2018-05-25T00:15:33.219Z,18.61
2018-05-25T00:16:33.225Z,18.61
2018-05-25T00:17:33.227Z,18.6
2018-05-25T00:18:33.233Z,18.61
2018-05-25T00:19:33.227Z,18.6
2018-05-25T00:20:33.237Z,18.61
2018-05-25T00:21:33.229Z,18.61
2018-05-25T00:22:33.249Z,18.61
2018-05-25T00:23:33.241Z,18.6
2018-05-25T00:24:33.228Z,18.59
2018-05-25T00:25:33.239Z,18.59
2018-05-25T00:26:33.389Z,18.57
2018-05-25T00:27:33.217Z,18.59
2018-05-25T00:28:33.230Z,18.53
2018-05-25T00:29:33.260Z,18.54
2018-05-25T00:30:33.244Z,18.56
2018-05-25T00:31:33.254Z,18.56
2018-05-25T00:32:33.299Z,18.54
2018-05-25T00:33:33.258Z,18.54
2018-05-25T00:34:33.270Z,18.52
2018-05-25T00:35:33.247Z,18.47
2018-05-25T00:36:33.271Z,18.47
2018-05-25T00:37:33.252Z,18.43
2018-05-25T00:38:33.271Z,18.44
2018-05-25T00:39:33.349Z,18.4
2018-05-25T00:40:33.245Z,18.37
2018-05-25T00:41:33.244Z,18.37
2018-05-25T00:42:33.221Z,18.33
2018-05-25T00:43:33.228Z,18.35
2018-05-25T00:44:33.366Z,18.35
2018-05-25T00:45:33.234Z,18.33
2018-05-25T00:46:33.226Z,18.3
2018-05-25T00:47:33.257Z,18.29
2018-05-25T00:48:33.247Z,18.3
2018-05-25T00:49:33.245Z,18.32
2018-05-25T00:50:33.256Z,18.29
2018-05-25T00:51:33.246Z,18.29
2018-05-25T00:52:33.235Z,18.29
2018-05-25T00:53:33.261Z,18.26
2018-05-25T00:54:33.244Z,18.27
2018-05-25T00:55:33.240Z,18.26
2018-05-25T00:56:33.258Z,18.23
2018-05-25T00:57:33.270Z,18.22
2018-05-25T00:58:33.298Z,18.22
2018-05-25T00:59:33.241Z,18.23
2018-05-25T01:00:33.272Z,18.22
2018-05-25T01:01:33.297Z,18.2
2018-05-25T01:02:33.397Z,18.23
2018-05-25T01:03:33.238Z,18.19
2018-05-25T01:04:33.281Z,18.17
2018-05-25T01:05:33.235Z,18.16
2018-05-25T01:06:33.255Z,18.2
2018-05-25T01:07:33.335Z,18.13
2018-05-25T01:08:33.273Z,18.16
2018-05-25T01:09:33.258Z,18.16
2018-05-25T01:10:33.272Z,18.12
2018-05-25T01:11:33.267Z,18.13
2018-05-25T01:12:33.266Z,18.09
2018-05-25T01:13:33.308Z,18.08
2018-05-25T01:14:33.362Z,18.06
2018-05-25T01:15:33.246Z,18.05
2018-05-25T01:16:33.245Z,18.06
2018-05-25T01:17:33.277Z,18.05
2018-05-25T01:18:33.326Z,18.02
2018-05-25T01:19:33.618Z,18.01
2018-05-25T01:20:33.265Z,18.01
2018-05-25T01:21:33.277Z,18.01
2018-05-25T01:22:33.260Z,17.98
2018-05-25T01:23:33.266Z,17.98
2018-05-25T01:24:33.282Z,17.97
2018-05-25T01:25:33.263Z,17.97
2018-05-25T01:26:33.295Z,17.97
2018-05-25T01:27:33.269Z,17.95
2018-05-25T01:28:33.293Z,17.98
2018-05-25T01:29:33.268Z,17.97
2018-05-25T01:30:33.248Z,17.97
2018-05-25T01:31:33.301Z,17.97
2018-05-25T01:32:33.257Z,17.94
2018-05-25T01:33:33.258Z,17.92
2018-05-25T01:34:33.251Z,17.92
2018-05-25T01:35:33.255Z,17.92
2018-05-25T01:36:33.282Z,17.92
2018-05-25T01:37:33.267Z,17.88
2018-05-25T01:38:33.281Z,17.88
2018-05-25T01:39:33.385Z,17.85
2018-05-25T01:40:33.662Z,17.82
2018-05-25T01:41:33.393Z,17.84
2018-05-25T01:42:33.306Z,17.84
2018-05-25T01:43:33.335Z,17.84
2018-05-25T01:44:33.284Z,17.82
2018-05-25T01:45:33.301Z,17.84
2018-05-25T01:46:33.426Z,17.82
2018-05-25T01:47:33.316Z,17.84
2018-05-25T01:48:33.262Z,17.82
2018-05-25T01:49:33.279Z,17.85
2018-05-25T01:50:33.279Z,17.87
2018-05-25T01:51:33.281Z,17.85
2018-05-25T01:52:33.404Z,17.85
2018-05-25T01:53:33.298Z,17.85
2018-05-25T01:54:33.304Z,17.85
2018-05-25T01:55:33.332Z,17.85
2018-05-25T01:56:33.312Z,17.84
2018-05-25T01:57:33.284Z,17.85
2018-05-25T01:58:33.264Z,17.85
2018-05-25T01:59:33.296Z,17.82
2018-05-25T02:00:33.292Z,17.87
2018-05-25T02:01:33.301Z,17.8
2018-05-25T02:02:33.281Z,17.81
2018-05-25T02:03:33.414Z,17.78
2018-05-25T02:04:33.274Z,17.8
2018-05-25T02:05:33.311Z,17.78
2018-05-25T02:06:33.343Z,17.8
2018-05-25T02:07:33.299Z,17.77
2018-05-25T02:08:33.284Z,17.77
2018-05-25T02:09:33.295Z,17.76
2018-05-25T02:10:33.556Z,17.73
2018-05-25T02:11:33.288Z,17.77
2018-05-25T02:12:33.282Z,17.76
2018-05-25T02:13:33.291Z,17.77
2018-05-25T02:14:33.286Z,17.76
2018-05-25T02:15:33.318Z,17.74
2018-05-25T02:16:33.291Z,17.77
2018-05-25T02:17:33.315Z,17.76
2018-05-25T02:18:33.312Z,17.74
2018-05-25T02:19:33.278Z,17.73
2018-05-25T02:20:33.318Z,17.71
2018-05-25T02:21:33.293Z,17.73
2018-05-25T02:22:33.346Z,17.73
2018-05-25T02:23:33.332Z,17.71
2018-05-25T02:24:33.286Z,17.71
2018-05-25T02:25:33.463Z,17.7
2018-05-25T02:26:33.275Z,17.7
2018-05-25T02:27:33.308Z,17.7
2018-05-25T02:28:33.432Z,17.7
2018-05-25T02:29:33.306Z,17.69
2018-05-25T02:30:33.333Z,17.66
2018-05-25T02:31:33.310Z,17.66
2018-05-25T02:32:33.300Z,17.61
2018-05-25T02:33:33.305Z,17.64
2018-05-25T02:34:33.311Z,17.61
2018-05-25T02:35:33.291Z,17.6
2018-05-25T02:36:33.304Z,17.61
2018-05-25T02:37:33.336Z,17.6
2018-05-25T02:38:33.453Z,17.57
2018-05-25T02:39:33.304Z,17.56
2018-05-25T02:40:33.333Z,17.56
2018-05-25T02:41:33.322Z,17.56
2018-05-25T02:42:33.286Z,17.54
2018-05-25T02:43:33.310Z,17.52
2018-05-25T02:44:33.297Z,17.52
2018-05-25T02:45:33.305Z,17.49
2018-05-25T02:46:33.316Z,17.5
2018-05-25T02:47:33.304Z,17.49
2018-05-25T02:48:33.314Z,17.47
2018-05-25T02:49:33.317Z,17.47
2018-05-25T02:50:33.283Z,17.47
2018-05-25T02:51:33.328Z,17.43
2018-05-25T02:52:33.295Z,17.44
2018-05-25T02:53:33.307Z,17.44
2018-05-25T02:54:33.323Z,17.4
2018-05-25T02:55:33.310Z,17.4
2018-05-25T02:56:33.588Z,17.39
2018-05-25T02:57:33.378Z,17.4
2018-05-25T02:58:33.366Z,17.39
2018-05-25T02:59:33.405Z,17.36
2018-05-25T03:00:33.801Z,17.35
2018-05-25T03:01:33.345Z,17.32
2018-05-25T03:02:33.309Z,17.3
2018-05-25T03:03:33.337Z,17.3
2018-05-25T03:04:33.399Z,17.27
2018-05-25T03:05:33.316Z,17.26
2018-05-25T03:06:33.348Z,17.25
2018-05-25T03:07:33.312Z,17.23
2018-05-25T03:08:33.342Z,17.23
2018-05-25T03:09:33.378Z,17.21
2018-05-25T03:10:33.309Z,17.19
2018-05-25T03:11:33.302Z,17.18
2018-05-25T03:12:33.320Z,17.16
2018-05-25T03:13:33.313Z,17.16
2018-05-25T03:14:33.340Z,17.14
2018-05-25T03:15:33.367Z,17.12
2018-05-25T03:16:33.344Z,17.12
2018-05-25T03:17:33.321Z,17.11
2018-05-25T03:18:33.312Z,17.08
2018-05-25T03:19:33.341Z,17.08
2018-05-25T03:20:33.341Z,17.09
2018-05-25T03:21:33.327Z,17.07
2018-05-25T03:22:33.323Z,17.08
2018-05-25T03:23:33.321Z,17.05
2018-05-25T03:24:33.326Z,17.04
2018-05-25T03:25:33.311Z,17.04
2018-05-25T03:26:33.341Z,17.02
2018-05-25T03:27:33.307Z,17.01
2018-05-25T03:28:33.334Z,17.01
2018-05-25T03:29:33.355Z,16.98
2018-05-25T03:30:33.318Z,16.98
2018-05-25T03:31:33.329Z,16.98
2018-05-25T03:32:33.355Z,16.97
2018-05-25T03:33:33.622Z,16.95
2018-05-25T03:34:33.350Z,16.94
2018-05-25T03:35:33.322Z,16.97
2018-05-25T03:36:33.356Z,16.94
2018-05-25T03:37:33.454Z,16.95
2018-05-25T03:38:33.360Z,16.92
2018-05-25T03:39:33.453Z,16.92
2018-05-25T03:40:33.340Z,16.92
2018-05-25T03:41:33.311Z,16.92
2018-05-25T03:42:33.314Z,16.91
2018-05-25T03:43:33.328Z,16.92
2018-05-25T03:44:33.358Z,16.94
2018-05-25T03:45:33.321Z,16.92
2018-05-25T03:46:33.329Z,16.92
2018-05-25T03:47:33.362Z,16.91
2018-05-25T03:48:33.328Z,16.9
2018-05-25T03:49:33.354Z,16.88
2018-05-25T03:50:33.342Z,16.9
2018-05-25T03:51:33.334Z,16.9
2018-05-25T03:52:33.358Z,16.91
2018-05-25T03:53:33.434Z,16.92
2018-05-25T03:54:33.485Z,16.91
2018-05-25T03:55:33.338Z,16.9
2018-05-25T03:56:33.323Z,16.9
2018-05-25T03:57:33.353Z,16.91
2018-05-25T03:58:33.329Z,16.92
2018-05-25T03:59:33.331Z,16.9
2018-05-25T04:00:33.348Z,16.91
2018-05-25T04:01:33.453Z,16.94
2018-05-25T04:02:33.351Z,16.92
2018-05-25T04:03:33.338Z,16.92
2018-05-25T04:04:33.345Z,16.97
2018-05-25T04:05:33.348Z,16.95
2018-05-25T04:06:33.358Z,16.97
2018-05-25T04:07:33.348Z,16.97
2018-05-25T04:08:33.476Z,16.99
2018-05-25T04:09:33.377Z,16.97
2018-05-25T04:10:33.396Z,16.98
2018-05-25T04:11:33.361Z,16.97
2018-05-25T04:12:33.363Z,16.97
2018-05-25T04:13:33.395Z,16.95
2018-05-25T04:14:34.395Z,16.97
2018-05-25T04:15:33.420Z,16.95
2018-05-25T04:16:33.349Z,16.94
2018-05-25T04:17:33.364Z,16.92
2018-05-25T04:18:33.422Z,16.92
2018-05-25T04:19:33.345Z,16.91
2018-05-25T04:20:33.360Z,16.92
2018-05-25T04:21:33.514Z,16.92
2018-05-25T04:22:33.399Z,16.92
2018-05-25T04:23:33.388Z,16.91
2018-05-25T04:24:33.378Z,16.91
2018-05-25T04:25:33.441Z,16.9
2018-05-25T04:26:33.348Z,16.88
2018-05-25T04:27:33.421Z,16.91
2018-05-25T04:28:33.398Z,16.9
2018-05-25T04:29:33.348Z,16.9
2018-05-25T04:30:33.498Z,16.88
2018-05-25T04:31:33.419Z,16.88
2018-05-25T04:32:33.383Z,16.91
2018-05-25T04:33:33.365Z,16.91
2018-05-25T04:34:33.346Z,16.88
2018-05-25T04:35:33.524Z,16.91
2018-05-25T04:36:33.348Z,16.9
2018-05-25T04:37:33.539Z,16.91
2018-05-25T04:38:33.378Z,16.91
2018-05-25T04:39:33.376Z,16.94
2018-05-25T04:40:33.351Z,16.94
2018-05-25T04:41:33.365Z,16.95
2018-05-25T04:42:33.356Z,16.97
2018-05-25T04:43:33.485Z,17.01
2018-05-25T04:44:33.415Z,16.98
2018-05-25T04:45:33.414Z,16.98
2018-05-25T04:46:33.364Z,17.02
2018-05-25T04:47:33.344Z,16.99
2018-05-25T04:48:33.368Z,17.02
2018-05-25T04:49:33.389Z,17.04
2018-05-25T04:50:33.383Z,17.05
2018-05-25T04:51:33.426Z,17.05
2018-05-25T04:52:33.374Z,17.08
2018-05-25T04:53:33.414Z,17.09
2018-05-25T04:54:33.373Z,17.11
2018-05-25T04:55:33.376Z,17.11
2018-05-25T04:56:33.384Z,17.11
2018-05-25T04:57:33.370Z,17.11
2018-05-25T04:58:33.389Z,17.12
2018-05-25T04:59:33.396Z,17.11
2018-05-25T05:00:33.411Z,17.15
2018-05-25T05:01:33.386Z,17.15
2018-05-25T05:02:33.404Z,17.14
2018-05-25T05:03:33.375Z,17.15
2018-05-25T05:04:33.384Z,17.16
2018-05-25T05:05:33.373Z,17.14
2018-05-25T05:06:33.392Z,17.16
2018-05-25T05:07:33.398Z,17.19
2018-05-25T05:08:33.410Z,17.16
2018-05-25T05:09:33.382Z,17.21
2018-05-25T05:10:33.403Z,17.21
2018-05-25T05:11:33.402Z,17.22
2018-05-25T05:12:33.408Z,17.21
2018-05-25T05:13:33.795Z,17.22
2018-05-25T05:14:33.398Z,17.22
2018-05-25T05:15:33.392Z,17.25
2018-05-25T05:16:33.403Z,17.25
2018-05-25T05:17:33.431Z,17.27
2018-05-25T05:18:33.420Z,17.29
2018-05-25T05:19:33.452Z,17.32
2018-05-25T05:20:33.478Z,17.32
2018-05-25T05:21:33.741Z,17.33
2018-05-25T05:22:33.408Z,17.33
2018-05-25T05:23:33.420Z,17.32
2018-05-25T05:24:33.445Z,17.36
2018-05-25T05:25:33.488Z,17.37
2018-05-25T05:26:33.417Z,17.37
2018-05-25T05:27:33.414Z,17.37
2018-05-25T05:28:33.449Z,17.4
2018-05-25T05:29:33.555Z,17.4
2018-05-25T05:30:33.398Z,17.44
2018-05-25T05:31:33.420Z,17.44
2018-05-25T05:32:33.386Z,17.47
2018-05-25T05:33:33.563Z,17.49
2018-05-25T05:34:33.430Z,17.53
2018-05-25T05:35:33.431Z,17.53
2018-05-25T05:36:33.416Z,17.56
2018-05-25T05:37:33.404Z,17.56
2018-05-25T05:38:33.461Z,17.57
2018-05-25T05:39:33.425Z,17.58
2018-05-25T05:40:33.414Z,17.6
2018-05-25T05:41:33.418Z,17.64
2018-05-25T05:42:33.423Z,17.61
2018-05-25T05:43:33.457Z,17.66
2018-05-25T05:44:33.417Z,17.66
2018-05-25T05:45:33.428Z,17.66
2018-05-25T05:46:33.439Z,17.66
2018-05-25T05:47:33.414Z,17.66
2018-05-25T05:48:33.421Z,17.67
2018-05-25T05:49:33.387Z,17.67
2018-05-25T05:50:33.532Z,17.69
2018-05-25T05:51:33.415Z,17.7
2018-05-25T05:52:33.420Z,17.73
2018-05-25T05:53:33.515Z,17.71
2018-05-25T05:54:33.475Z,17.74
2018-05-25T05:55:33.411Z,17.77
2018-05-25T05:56:33.623Z,17.78
2018-05-25T05:57:33.408Z,17.77
2018-05-25T05:58:33.431Z,17.8
2018-05-25T05:59:33.518Z,17.81
2018-05-25T06:00:33.444Z,17.82
2018-05-25T06:01:33.424Z,17.84
2018-05-25T06:02:33.465Z,17.84
2018-05-25T06:03:33.393Z,17.82
2018-05-25T06:04:33.428Z,17.87
2018-05-25T06:05:33.468Z,17.85
2018-05-25T06:06:34.048Z,17.88
2018-05-25T06:07:33.527Z,17.91
2018-05-25T06:08:33.409Z,17.87
2018-05-25T06:09:33.499Z,17.88
2018-05-25T06:10:33.408Z,17.92
2018-05-25T06:11:33.422Z,17.95
2018-05-25T06:12:33.407Z,17.95
2018-05-25T06:13:33.393Z,17.97
2018-05-25T06:14:33.410Z,17.97
2018-05-25T06:15:33.395Z,17.97
2018-05-25T06:16:33.407Z,17.95
2018-05-25T06:17:33.407Z,17.95
2018-05-25T06:18:33.422Z,17.97
2018-05-25T06:19:33.469Z,17.98
2018-05-25T06:20:33.404Z,17.98
2018-05-25T06:21:33.429Z,18.02
2018-05-25T06:22:33.453Z,17.99
2018-05-25T06:23:33.453Z,17.99
2018-05-25T06:24:33.441Z,18.02
2018-05-25T06:25:33.439Z,18.05
2018-05-25T06:26:33.496Z,18.08
2018-05-25T06:27:33.430Z,18.08
2018-05-25T06:28:33.488Z,18.12
2018-05-25T06:29:34.180Z,18.12
2018-05-25T06:30:33.540Z,18.13
2018-05-25T06:31:33.488Z,18.17
2018-05-25T06:32:33.435Z,18.2
2018-05-25T06:33:33.460Z,18.17
2018-05-25T06:34:33.538Z,18.2
2018-05-25T06:35:33.441Z,18.22
2018-05-25T06:36:33.446Z,18.26
2018-05-25T06:37:33.463Z,18.23
2018-05-25T06:38:33.465Z,18.27
2018-05-25T06:39:33.511Z,18.25
2018-05-25T06:40:33.448Z,18.25
2018-05-25T06:41:33.589Z,18.25
2018-05-25T06:42:33.492Z,18.27
2018-05-25T06:43:33.438Z,18.26
2018-05-25T06:44:33.484Z,18.29
2018-05-25T06:45:33.455Z,18.32
2018-05-25T06:46:33.452Z,18.32
2018-05-25T06:47:33.531Z,18.33
2018-05-25T06:48:33.545Z,18.35
2018-05-25T06:49:33.461Z,18.35
2018-05-25T06:50:33.972Z,18.37
2018-05-25T06:51:33.541Z,18.39
2018-05-25T06:52:33.450Z,18.4
2018-05-25T06:53:33.573Z,18.39
2018-05-25T06:54:33.461Z,18.43
2018-05-25T06:55:33.459Z,18.43
2018-05-25T06:56:33.623Z,18.46
2018-05-25T06:57:33.508Z,18.44
2018-05-25T06:58:33.460Z,18.46
2018-05-25T06:59:33.443Z,18.49
2018-05-25T07:00:33.456Z,18.49
2018-05-25T07:01:33.448Z,18.49
2018-05-25T07:02:33.466Z,18.5
2018-05-25T07:03:33.460Z,18.56
2018-05-25T07:04:33.451Z,18.54
2018-05-25T07:05:33.475Z,18.53
2018-05-25T07:06:33.505Z,18.53
2018-05-25T07:07:33.457Z,18.57
2018-05-25T07:08:33.570Z,18.61
2018-05-25T07:09:33.486Z,18.64
2018-05-25T07:10:33.480Z,18.61
2018-05-25T07:11:33.646Z,18.63
2018-05-25T07:12:33.483Z,18.68
2018-05-25T07:13:33.581Z,18.7
2018-05-25T07:14:33.470Z,18.66
2018-05-25T07:15:33.509Z,18.61
2018-05-25T07:16:33.569Z,18.63
2018-05-25T07:17:33.455Z,18.67
2018-05-25T07:18:33.674Z,18.67
2018-05-25T07:19:33.549Z,18.67
2018-05-25T07:20:33.473Z,18.66
2018-05-25T07:21:33.502Z,18.7
2018-05-25T07:22:33.467Z,18.74
2018-05-25T07:23:33.498Z,18.81
2018-05-25T07:24:33.428Z,18.82
2018-05-25T07:25:33.469Z,18.88
2018-05-25T07:26:33.542Z,18.94
2018-05-25T07:27:33.549Z,18.89
2018-05-25T07:28:33.569Z,18.95
2018-05-25T07:29:33.474Z,18.98
2018-05-25T07:30:33.602Z,18.99
2018-05-25T07:31:33.470Z,19.05
2018-05-25T07:32:33.497Z,19.02
2018-05-25T07:33:33.481Z,19.08
2018-05-25T07:34:33.474Z,19.1
2018-05-25T07:35:33.609Z,19.17
2018-05-25T07:36:33.488Z,19.19
2018-05-25T07:37:33.481Z,19.13
2018-05-25T07:38:33.552Z,19.15
2018-05-25T07:39:33.545Z,19.21
2018-05-25T07:40:33.583Z,19.26
2018-05-25T07:41:33.491Z,19.26
2018-05-25T07:42:33.514Z,19.29
2018-05-25T07:43:33.520Z,19.32
2018-05-25T07:44:33.507Z,19.4
2018-05-25T07:45:33.552Z,19.44
2018-05-25T07:46:33.530Z,19.49
2018-05-25T07:47:33.549Z,19.51
2018-05-25T07:48:33.486Z,19.56
2018-05-25T07:49:33.482Z,19.54
2018-05-25T07:50:34.168Z,19.56
2018-05-25T07:51:33.502Z,19.5
2018-05-25T07:52:33.559Z,19.53
2018-05-25T07:53:33.650Z,19.54
2018-05-25T07:54:33.559Z,19.56
2018-05-25T07:55:33.543Z,19.62
2018-05-25T07:56:33.548Z,19.67
2018-05-25T07:57:33.513Z,19.68
2018-05-25T07:58:33.527Z,19.72
2018-05-25T07:59:33.528Z,19.81
2018-05-25T08:00:33.524Z,19.81
2018-05-25T08:01:33.493Z,19.84
2018-05-25T08:02:33.518Z,19.88
2018-05-25T08:03:33.528Z,19.93
2018-05-25T08:04:33.531Z,19.95
2018-05-25T08:05:33.455Z,19.92
2018-05-25T08:06:33.517Z,19.95
2018-05-25T08:07:33.566Z,19.98
2018-05-25T08:08:33.551Z,20.02
2018-05-25T08:09:33.570Z,20.02
2018-05-25T08:10:33.500Z,20.05
2018-05-25T08:11:33.521Z,20.01
2018-05-25T08:12:33.515Z,19.95
2018-05-25T08:13:33.623Z,20.01
2018-05-25T08:14:33.686Z,19.95
2018-05-25T08:15:33.499Z,19.96
2018-05-25T08:16:33.562Z,19.95
2018-05-25T08:17:33.601Z,19.89
2018-05-25T08:18:33.673Z,19.85
2018-05-25T08:19:33.501Z,19.91
2018-05-25T08:20:33.500Z,19.88
2018-05-25T08:21:33.576Z,19.89
2018-05-25T08:22:33.558Z,19.89
2018-05-25T08:23:33.571Z,19.96
2018-05-25T08:24:34.619Z,20.01
2018-05-25T08:25:33.540Z,20.02
2018-05-25T08:26:33.506Z,20.01
2018-05-25T08:27:33.515Z,20.02
2018-05-25T08:28:33.522Z,19.98
2018-05-25T08:29:33.472Z,20.01
2018-05-25T08:30:33.492Z,20.02
2018-05-25T08:31:33.621Z,20.06
2018-05-25T08:32:33.551Z,20.05
2018-05-25T08:33:33.494Z,19.99
2018-05-25T08:34:33.528Z,19.99
2018-05-25T08:35:33.545Z,20.02
2018-05-25T08:36:33.544Z,20.08
2018-05-25T08:37:33.507Z,20.15
2018-05-25T08:38:33.522Z,20.23
2018-05-25T08:39:33.504Z,20.3
2018-05-25T08:40:33.521Z,20.29
2018-05-25T08:41:33.556Z,20.32
2018-05-25T08:42:33.642Z,20.39
2018-05-25T08:43:33.506Z,20.44
2018-05-25T08:44:33.512Z,20.5
2018-05-25T08:45:33.540Z,20.55
2018-05-25T08:46:33.500Z,20.62
2018-05-25T08:47:33.519Z,20.62
2018-05-25T08:48:33.528Z,20.67
2018-05-25T08:49:33.702Z,20.72
2018-05-25T08:50:33.513Z,20.75
2018-05-25T08:51:33.512Z,20.79
2018-05-25T08:52:33.568Z,20.84
2018-05-25T08:53:33.516Z,20.81
2018-05-25T08:54:33.538Z,20.78
2018-05-25T08:55:33.513Z,20.71
2018-05-25T08:56:33.509Z,20.54
2018-05-25T08:57:33.524Z,20.44
2018-05-25T08:58:33.531Z,20.5
2018-05-25T08:59:33.517Z,20.5
2018-05-25T09:00:33.506Z,20.54
2018-05-25T09:01:33.483Z,20.61
2018-05-25T09:02:33.659Z,20.7
2018-05-25T09:03:33.507Z,20.81
2018-05-25T09:04:33.499Z,20.91
2018-05-25T09:05:33.487Z,20.99
2018-05-25T09:06:33.520Z,21.06
2018-05-25T09:07:33.545Z,21.13
2018-05-25T09:08:33.562Z,21.17
2018-05-25T09:09:33.544Z,21.24
2018-05-25T09:10:33.502Z,21.29
2018-05-25T09:11:33.564Z,21.26
2018-05-25T09:12:33.687Z,21.13
2018-05-25T09:13:33.595Z,21.15
2018-05-25T09:14:33.519Z,21.22
2018-05-25T09:15:33.498Z,21.3
2018-05-25T09:16:33.583Z,21.3
2018-05-25T09:17:33.547Z,21.37
2018-05-25T09:18:33.707Z,21.4
2018-05-25T09:19:33.537Z,21.46
2018-05-25T09:20:33.530Z,21.53
2018-05-25T09:21:33.593Z,21.53
2018-05-25T09:22:33.550Z,21.57
2018-05-25T09:23:33.533Z,21.62
2018-05-25T09:24:33.547Z,21.71
2018-05-25T09:25:33.504Z,21.74
2018-05-25T09:26:33.596Z,21.79
2018-05-25T09:27:33.564Z,21.88
2018-05-25T09:28:33.503Z,21.91
2018-05-25T09:29:33.504Z,21.92
2018-05-25T09:30:33.518Z,21.96
2018-05-25T09:31:33.574Z,21.95
2018-05-25T09:32:33.684Z,21.92
2018-05-25T09:33:33.521Z,21.96
2018-05-25T09:34:33.534Z,21.98
2018-05-25T09:35:33.644Z,22.05
2018-05-25T09:36:33.513Z,22.05
2018-05-25T09:37:33.541Z,22.11
2018-05-25T09:38:33.538Z,22.17
2018-05-25T09:39:33.528Z,22.17
2018-05-25T09:40:33.515Z,22.26
2018-05-25T09:41:33.549Z,22.34
2018-05-25T09:42:33.542Z,22.37
2018-05-25T09:43:33.698Z,22.47
2018-05-25T09:44:33.535Z,22.53
2018-05-25T09:45:33.524Z,22.57
2018-05-25T09:46:33.738Z,22.65
2018-05-25T09:47:33.599Z,22.71
2018-05-25T09:48:33.561Z,22.75
2018-05-25T09:49:33.565Z,22.76
2018-05-25T09:50:33.540Z,22.76
2018-05-25T09:51:33.549Z,22.78
2018-05-25T09:52:33.549Z,22.58
2018-05-25T09:53:33.592Z,22.54
2018-05-25T09:54:33.705Z,22.44
2018-05-25T09:55:33.543Z,22.48
2018-05-25T09:56:33.540Z,22.58
2018-05-25T09:57:33.595Z,22.74
2018-05-25T09:58:33.628Z,22.78
2018-05-25T09:59:33.556Z,22.64
2018-05-25T10:00:33.520Z,22.58
2018-05-25T10:01:33.546Z,22.57
2018-05-25T10:02:33.553Z,22.54
2018-05-25T10:03:33.547Z,22.54
2018-05-25T10:04:33.547Z,22.54
2018-05-25T10:05:33.660Z,22.5
2018-05-25T10:06:33.537Z,22.46
2018-05-25T10:07:33.542Z,22.44
2018-05-25T10:08:33.652Z,22.36
2018-05-25T10:09:33.549Z,22.23
2018-05-25T10:10:33.573Z,22.22
2018-05-25T10:11:33.553Z,22.12
2018-05-25T10:12:33.563Z,22.09
2018-05-25T10:13:33.554Z,22.08
2018-05-25T10:14:33.557Z,22.11
2018-05-25T10:15:33.552Z,22.15
2018-05-25T10:16:33.576Z,22.15
2018-05-25T10:17:33.565Z,22.12
2018-05-25T10:18:33.547Z,22.2
2018-05-25T10:19:33.544Z,22.29
2018-05-25T10:20:33.574Z,22.3
2018-05-25T10:21:33.558Z,22.39
2018-05-25T10:22:33.590Z,22.44
2018-05-25T10:23:33.576Z,22.43
2018-05-25T10:24:33.622Z,22.41
2018-05-25T10:25:33.556Z,22.54
2018-05-25T10:26:33.568Z,22.61
2018-05-25T10:27:33.575Z,22.63
2018-05-25T10:28:33.582Z,22.67
2018-05-25T10:29:33.659Z,22.74
2018-05-25T10:30:33.557Z,22.81
2018-05-25T10:31:33.556Z,22.88
2018-05-25T10:32:33.578Z,22.99
2018-05-25T10:33:33.808Z,23.02
2018-05-25T10:34:33.560Z,23.07
2018-05-25T10:35:33.554Z,23.4
2018-05-25T10:36:33.569Z,23.53
2018-05-25T10:37:33.579Z,23.57
2018-05-25T10:38:33.596Z,23.54
2018-05-25T10:39:33.585Z,23.53
2018-05-25T10:40:33.566Z,23.56
2018-05-25T10:41:33.600Z,23.75
2018-05-25T10:42:33.672Z,23.78
2018-05-25T10:43:33.544Z,23.68
2018-05-25T10:44:33.567Z,23.65
2018-05-25T10:45:33.655Z,23.61
2018-05-25T10:46:33.538Z,23.5
2018-05-25T10:47:33.576Z,23.51
2018-05-25T10:48:33.617Z,23.6
2018-05-25T10:49:33.657Z,23.67
2018-05-25T10:50:33.761Z,23.64
2018-05-25T10:51:33.709Z,23.6
2018-05-25T10:52:33.572Z,23.68
2018-05-25T10:53:33.572Z,23.82
2018-05-25T10:54:33.577Z,23.96
2018-05-25T10:55:33.614Z,24.02
2018-05-25T10:56:33.576Z,23.92
2018-05-25T10:57:33.609Z,23.84
2018-05-25T10:58:33.566Z,23.85
2018-05-25T10:59:33.650Z,23.81
2018-05-25T11:00:33.552Z,23.77
2018-05-25T11:01:33.565Z,23.82
2018-05-25T11:02:33.585Z,23.81
2018-05-25T11:03:33.607Z,23.78
2018-05-25T11:04:33.569Z,23.78
2018-05-25T11:05:33.769Z,23.61
2018-05-25T11:06:33.575Z,23.41
2018-05-25T11:07:33.577Z,23.36
2018-05-25T11:08:33.580Z,23.34
2018-05-25T11:09:33.583Z,23.29
2018-05-25T11:10:33.565Z,23.22
2018-05-25T11:11:33.732Z,23.25
2018-05-25T11:12:33.604Z,23.23
2018-05-25T11:13:33.712Z,23.27
2018-05-25T11:14:33.623Z,23.3
2018-05-25T11:15:33.607Z,23.37
2018-05-25T11:16:33.685Z,23.36
2018-05-25T11:17:33.590Z,23.37
2018-05-25T11:18:33.572Z,23.43
2018-05-25T11:19:33.760Z,23.56
2018-05-25T11:20:33.766Z,23.68
2018-05-25T11:21:33.777Z,23.62
2018-05-25T11:22:33.839Z,23.54
2018-05-25T11:23:33.800Z,23.64
2018-05-25T11:24:33.590Z,23.71
2018-05-25T11:25:33.703Z,23.71
2018-05-25T11:26:33.583Z,23.85
2018-05-25T11:27:33.649Z,23.74
2018-05-25T11:28:33.616Z,23.8
2018-05-25T11:29:33.579Z,23.73
2018-05-25T11:30:33.585Z,23.82
2018-05-25T11:31:33.841Z,23.82
2018-05-25T11:32:33.639Z,23.88
2018-05-25T11:33:33.749Z,23.98
2018-05-25T11:34:33.656Z,24.05
2018-05-25T11:35:33.607Z,24.13
2018-05-25T11:36:33.775Z,24.23
2018-05-25T11:37:33.776Z,24.3
2018-05-25T11:38:33.783Z,24.33
2018-05-25T11:39:33.633Z,24.46
2018-05-25T11:40:33.724Z,24.54
2018-05-25T11:41:33.693Z,24.35
2018-05-25T11:42:33.610Z,24.32
2018-05-25T11:43:33.719Z,24.35
2018-05-25T11:44:33.829Z,24.27
2018-05-25T11:45:33.648Z,24.12
2018-05-25T11:46:33.728Z,23.95
2018-05-25T11:47:33.750Z,23.93
2018-05-25T11:48:33.602Z,23.99
2018-05-25T11:49:33.590Z,23.93
2018-05-25T11:50:33.767Z,24.05
2018-05-25T11:51:33.585Z,24.01
2018-05-25T11:52:33.779Z,24.03
2018-05-25T11:53:33.713Z,24.01
2018-05-25T11:54:33.617Z,23.96
2018-05-25T11:55:33.903Z,23.98
2018-05-25T11:56:33.617Z,23.98
2018-05-25T11:57:33.698Z,23.95
2018-05-25T11:58:33.710Z,23.95
2018-05-25T11:59:33.716Z,23.96
2018-05-25T12:00:33.735Z,23.93
2018-05-25T12:01:33.732Z,23.92
2018-05-25T12:02:33.736Z,23.92
2018-05-25T12:03:35.796Z,23.81
2018-05-25T12:04:33.854Z,23.84
2018-05-25T12:05:33.759Z,23.88
2018-05-25T12:06:33.800Z,23.92
2018-05-25T12:07:33.773Z,23.95
2018-05-25T12:08:33.637Z,23.96
2018-05-25T12:09:33.606Z,23.99
2018-05-25T12:10:33.793Z,24.02
2018-05-25T12:11:33.635Z,24.17
2018-05-25T12:12:33.656Z,24.27
2018-05-25T12:13:34.862Z,24.23
2018-05-25T12:14:33.829Z,24.3
2018-05-25T12:15:33.693Z,24.46
2018-05-25T12:16:33.968Z,24.51
2018-05-25T12:17:33.777Z,24.65
2018-05-25T12:18:33.651Z,24.77
2018-05-25T12:19:33.643Z,24.85
2018-05-25T12:20:33.785Z,25.1
2018-05-25T12:21:33.605Z,24.99
2018-05-25T12:22:33.782Z,24.98
2018-05-25T12:23:33.677Z,24.99
2018-05-25T12:24:33.680Z,24.95
2018-05-25T12:25:34.308Z,24.81
2018-05-25T12:26:33.650Z,24.7
2018-05-25T12:27:33.649Z,24.64
2018-05-25T12:28:33.721Z,24.48
2018-05-25T12:29:33.663Z,24.5
2018-05-25T12:30:33.640Z,24.47
2018-05-25T12:31:33.875Z,24.46
2018-05-25T12:32:33.677Z,24.63
2018-05-25T12:33:33.644Z,24.68
2018-05-25T12:34:33.758Z,24.67
2018-05-25T12:35:33.636Z,24.88
2018-05-25T12:36:33.639Z,24.91
2018-05-25T12:37:33.781Z,24.99
2018-05-25T12:38:33.739Z,24.97
2018-05-25T12:39:33.760Z,24.97
2018-05-25T12:40:33.796Z,24.89
2018-05-25T12:41:33.631Z,25.16
2018-05-25T12:42:33.649Z,25.15
2018-05-25T12:43:33.831Z,25.08
2018-05-25T12:44:33.647Z,25.03
2018-05-25T12:45:33.673Z,25.1
2018-05-25T12:46:39.597Z,25.06
2018-05-25T12:47:33.646Z,25.19
2018-05-25T12:48:33.656Z,25.26
2018-05-25T12:49:34.076Z,25.25
2018-05-25T12:50:33.852Z,25.22
2018-05-25T12:51:33.774Z,25.19
2018-05-25T12:52:33.787Z,25.27
2018-05-25T12:53:33.773Z,25.29
2018-05-25T12:54:33.846Z,25.2